createdAt,value
2018-06-01T00:00:17.888Z,1004.68
2018-06-01T00:01:23.295Z,1004.70
2018-06-01T00:02:28.782Z,1004.72
2018-06-01T00:03:34.309Z,1004.71
2018-06-01T00:04:39.826Z,1004.70
2018-06-01T00:05:46.369Z,1004.66
2018-06-01T00:06:50.858Z,1004.69
2018-06-01T00:07:56.389Z,1004.71
2018-06-01T00:09:01.898Z,1004.69
2018-06-01T00:10:07.415Z,1004.74
2018-06-01T00:11:12.933Z,1004.77
2018-06-01T00:12:19.470Z,1004.78
2018-06-01T00:13:24.050Z,1004.79
2018-06-01T00:14:29.489Z,1004.77
2018-06-01T00:15:35.012Z,1004.78
2018-06-01T00:16:40.564Z,1004.80
2018-06-01T00:17:46.050Z,1004.83
2018-06-01T00:18:52.556Z,1004.77
2018-06-01T00:19:57.141Z,1004.82
2018-06-01T00:21:02.591Z,1004.79
2018-06-01T00:22:08.105Z,1004.82
2018-06-01T00:23:13.628Z,1004.80
2018-06-01T00:24:19.146Z,1004.82
2018-06-01T00:25:25.678Z,1004.81
2018-06-01T00:26:30.187Z,1004.81
2018-06-01T00:27:35.725Z,1004.82
2018-06-01T00:28:41.224Z,1004.81
2018-06-01T00:29:46.740Z,1004.82
2018-06-01T00:30:52.252Z,1004.84
2018-06-01T00:31:58.786Z,1004.84
2018-06-01T00:33:03.339Z,1004.84
2018-06-01T00:34:08.803Z,1004.80
2018-06-01T00:35:14.320Z,1004.81
2018-06-01T00:36:19.835Z,1004.82
2018-06-01T00:37:25.356Z,1004.79
2018-06-01T00:38:31.909Z,1004.75
2018-06-01T00:39:36.416Z,1004.76
2018-06-01T00:40:41.943Z,1004.72
2018-06-01T00:41:47.436Z,1004.77
2018-06-01T00:42:52.961Z,1004.74
2018-06-01T00:43:58.466Z,1004.76
2018-06-01T00:45:05.004Z,1004.74
2018-06-01T00:46:09.512Z,1004.74
2018-06-01T00:47:15.029Z,1004.76
2018-06-01T00:48:20.601Z,1004.75
2018-06-01T00:49:26.054Z,1004.77
2018-06-01T00:50:31.571Z,1004.78
2018-06-01T00:51:38.097Z,1004.82
2018-06-01T00:52:42.653Z,1004.80
2018-06-01T00:53:48.143Z,1004.81
2018-06-01T00:54:53.642Z,1004.78
2018-06-01T00:55:59.155Z,1004.84
2018-06-01T00:57:04.691Z,1004.82
2018-06-01T00:58:11.209Z,1004.83
2018-06-01T00:59:15.724Z,1004.83
2018-06-01T01:00:21.276Z,1004.87
2018-06-01T01:01:26.753Z,1004.86
2018-06-01T01:02:32.271Z,1004.81
2018-06-01T01:03:37.783Z,1004.78
2018-06-01T01:04:44.322Z,1004.78
2018-06-01T01:05:48.828Z,1004.74
2018-06-01T01:06:54.337Z,1004.67
2018-06-01T01:07:59.853Z,1004.61
2018-06-01T01:09:05.382Z,1004.62
2018-06-01T01:10:10.899Z,1004.59
2018-06-01T01:11:17.438Z,1004.63
2018-06-01T01:12:21.936Z,1004.61
2018-06-01T01:13:27.451Z,1004.64
2018-06-01T01:14:32.957Z,1004.63
2018-06-01T01:15:38.485Z,1004.66
2018-06-01T01:16:43.999Z,1004.68
2018-06-01T01:17:50.538Z,1004.72
2018-06-01T01:18:55.040Z,1004.76
2018-06-01T01:20:00.550Z,1004.79
2018-06-01T01:21:06.079Z,1004.80
2018-06-01T01:22:11.592Z,1004.83
2018-06-01T01:23:17.110Z,1004.87
2018-06-01T01:24:23.643Z,1004.82
2018-06-01T01:25:28.176Z,1004.86
2018-06-01T01:26:33.658Z,1004.85
2018-06-01T01:27:39.182Z,1004.86
2018-06-01T01:28:44.696Z,1004.84
2018-06-01T01:29:50.206Z,1004.81
2018-06-01T01:30:56.736Z,1004.80
2018-06-01T01:32:01.291Z,1004.74
2018-06-01T01:33:06.784Z,1004.76
2018-06-01T01:34:12.283Z,1004.71
2018-06-01T01:35:17.794Z,1004.72
2018-06-01T01:36:23.316Z,1004.72
2018-06-01T01:37:29.841Z,1004.74
2018-06-01T01:38:34.362Z,1004.82
2018-06-01T01:39:39.875Z,1004.84
2018-06-01T01:40:45.381Z,1004.86
2018-06-01T01:41:50.911Z,1004.88
2018-06-01T01:42:56.417Z,1004.89
2018-06-01T01:44:02.955Z,1004.90
2018-06-01T01:45:07.450Z,1004.86
2018-06-01T01:46:12.988Z,1004.88
2018-06-01T01:47:18.492Z,1004.90
2018-06-01T01:48:24.003Z,1004.84
2018-06-01T01:49:29.525Z,1004.92
2018-06-01T01:50:36.060Z,1004.92
2018-06-01T01:51:40.557Z,1004.91
2018-06-01T01:52:46.075Z,1004.96
2018-06-01T01:53:51.600Z,1004.99
2018-06-01T01:54:57.112Z,1004.97
2018-06-01T01:56:02.637Z,1004.94
2018-06-01T01:57:09.155Z,1005.00
2018-06-01T01:58:13.673Z,1004.96
2018-06-01T01:59:19.195Z,1004.98
2018-06-01T02:00:24.698Z,1004.96
2018-06-01T02:01:30.223Z,1004.98
2018-06-01T02:02:35.738Z,1004.94
2018-06-01T02:03:42.266Z,1004.91
2018-06-01T02:04:46.776Z,1004.94
2018-06-01T02:05:52.351Z,1004.91
2018-06-01T02:06:57.804Z,1004.90
2018-06-01T02:08:03.321Z,1004.89
2018-06-01T02:09:08.868Z,1004.91
2018-06-01T02:10:15.369Z,1004.92
2018-06-01T02:11:19.879Z,1004.87
2018-06-01T02:12:25.390Z,1004.87
2018-06-01T02:13:30.920Z,1004.87
2018-06-01T02:14:36.442Z,1004.83
2018-06-01T02:15:41.953Z,1004.83
2018-06-01T02:16:48.473Z,1004.81
2018-06-01T02:17:52.996Z,1004.80
2018-06-01T02:18:58.532Z,1004.79
2018-06-01T02:20:04.013Z,1004.80
2018-06-01T02:21:09.527Z,1004.76
2018-06-01T02:22:15.060Z,1004.77
2018-06-01T02:23:21.581Z,1004.77
2018-06-01T02:24:26.117Z,1004.77
2018-06-01T02:25:31.602Z,1004.72
2018-06-01T02:26:37.120Z,1004.72
2018-06-01T02:27:42.648Z,1004.71
2018-06-01T02:28:48.164Z,1004.67
2018-06-01T02:29:54.684Z,1004.67
2018-06-01T02:30:59.209Z,1004.70
2018-06-01T02:32:04.713Z,1004.67
2018-06-01T02:33:10.224Z,1004.66
2018-06-01T02:34:15.742Z,1004.69
2018-06-01T02:35:21.320Z,1004.66
2018-06-01T02:36:27.791Z,1004.69
2018-06-01T02:37:32.303Z,1004.62
2018-06-01T02:38:37.814Z,1004.65
2018-06-01T02:39:43.336Z,1004.61
2018-06-01T02:40:48.845Z,1004.59
2018-06-01T02:41:54.365Z,1004.57
2018-06-01T02:43:00.915Z,1004.57
2018-06-01T02:44:05.454Z,1004.53
2018-06-01T02:45:10.914Z,1004.53
2018-06-01T02:46:16.437Z,1004.52
2018-06-01T02:47:21.957Z,1004.53
2018-06-01T02:48:27.480Z,1004.56
2018-06-01T02:49:34.013Z,1004.56
2018-06-01T02:50:38.501Z,1004.53
2018-06-01T02:51:44.023Z,1004.53
2018-06-01T02:52:49.540Z,1004.57
2018-06-01T02:53:55.062Z,1004.49
2018-06-01T02:55:00.592Z,1004.50
2018-06-01T02:56:07.097Z,1004.51
2018-06-01T02:57:11.608Z,1004.49
2018-06-01T02:58:17.130Z,1004.43
2018-06-01T02:59:22.710Z,1004.43
2018-06-01T03:00:28.157Z,1004.37
2018-06-01T03:01:33.684Z,1004.40
2018-06-01T03:02:40.256Z,1004.33
2018-06-01T03:03:44.718Z,1004.32
2018-06-01T03:04:50.231Z,1004.27
2018-06-01T03:05:55.749Z,1004.24
2018-06-01T03:07:01.262Z,1004.25
2018-06-01T03:08:06.789Z,1004.22
2018-06-01T03:09:13.317Z,1004.25
2018-06-01T03:10:17.819Z,1004.21
2018-06-01T03:11:23.338Z,1004.27
2018-06-01T03:12:28.850Z,1004.32
2018-06-01T03:13:34.379Z,1004.30
2018-06-01T03:14:39.883Z,1004.33
2018-06-01T03:15:46.446Z,1004.35
2018-06-01T03:16:50.927Z,1004.35
2018-06-01T03:17:56.448Z,1004.35
2018-06-01T03:19:01.958Z,1004.32
2018-06-01T03:20:07.488Z,1004.36
2018-06-01T03:21:13.020Z,1004.35
2018-06-01T03:22:19.531Z,1004.35
2018-06-01T03:23:24.114Z,1004.34
2018-06-01T03:24:29.610Z,1004.32
2018-06-01T03:25:35.069Z,1004.33
2018-06-01T03:26:40.597Z,1004.32
2018-06-01T03:27:46.103Z,1004.34
2018-06-01T03:28:52.640Z,1004.36
2018-06-01T03:29:57.139Z,1004.37
2018-06-01T03:31:02.654Z,1004.43
2018-06-01T03:32:08.169Z,1004.50
2018-06-01T03:33:13.688Z,1004.51
2018-06-01T03:34:19.216Z,1004.50
2018-06-01T03:35:25.733Z,1004.56
2018-06-01T03:36:30.246Z,1004.59
2018-06-01T03:37:35.751Z,1004.60
2018-06-01T03:38:41.266Z,1004.62
2018-06-01T03:39:46.793Z,1004.60
2018-06-01T03:40:52.317Z,1004.59
2018-06-01T03:41:58.827Z,1004.61
2018-06-01T03:43:03.341Z,1004.63
2018-06-01T03:44:08.999Z,1004.63
2018-06-01T03:45:14.375Z,1004.66
2018-06-01T03:46:19.909Z,1004.66
2018-06-01T03:47:25.421Z,1004.70
2018-06-01T03:48:31.935Z,1004.65
2018-06-01T03:49:36.444Z,1004.67
2018-06-01T03:50:41.967Z,1004.73
2018-06-01T03:51:47.483Z,1004.72
2018-06-01T03:52:52.995Z,1004.71
2018-06-01T03:53:58.509Z,1004.71
2018-06-01T03:55:05.050Z,1004.69
2018-06-01T03:56:09.549Z,1004.66
2018-06-01T03:57:15.064Z,1004.66
2018-06-01T03:58:20.580Z,1004.56
2018-06-01T03:59:26.110Z,1004.57
2018-06-01T04:00:31.618Z,1004.52
2018-06-01T04:01:38.145Z,1004.55
2018-06-01T04:02:42.657Z,1004.56
2018-06-01T04:03:48.171Z,1004.58
2018-06-01T04:04:53.684Z,1004.61
2018-06-01T04:05:59.208Z,1004.66
2018-06-01T04:07:04.721Z,1004.67
2018-06-01T04:08:11.254Z,1004.72
2018-06-01T04:09:15.769Z,1004.79
2018-06-01T04:10:21.273Z,1004.77
2018-06-01T04:11:26.796Z,1004.78
2018-06-01T04:12:32.308Z,1004.79
2018-06-01T04:13:37.927Z,1004.81
2018-06-01T04:14:44.350Z,1004.81
2018-06-01T04:15:48.872Z,1004.81
2018-06-01T04:16:54.398Z,1004.84
2018-06-01T04:17:59.896Z,1004.85
2018-06-01T04:19:05.426Z,1004.86
2018-06-01T04:20:10.925Z,1004.84
2018-06-01T04:21:17.471Z,1004.86
2018-06-01T04:22:21.958Z,1004.89
2018-06-01T04:23:27.480Z,1004.82
2018-06-01T04:24:33.000Z,1004.84
2018-06-01T04:25:38.533Z,1004.86
2018-06-01T04:26:44.041Z,1004.86
2018-06-01T04:27:50.570Z,1004.87
2018-06-01T04:28:55.072Z,1004.85
2018-06-01T04:30:00.590Z,1004.81
2018-06-01T04:31:06.111Z,1004.80
2018-06-01T04:32:11.626Z,1004.78
2018-06-01T04:33:17.150Z,1004.80
2018-06-01T04:34:23.679Z,1004.75
2018-06-01T04:35:28.172Z,1004.77
2018-06-01T04:36:33.691Z,1004.79
2018-06-01T04:37:39.223Z,1004.83
2018-06-01T04:38:44.731Z,1004.89
2018-06-01T04:39:50.243Z,1004.92
2018-06-01T04:40:56.774Z,1004.98
2018-06-01T04:42:01.282Z,1005.06
2018-06-01T04:43:06.797Z,1005.10
2018-06-01T04:44:12.361Z,1005.13
2018-06-01T04:45:17.831Z,1005.17
2018-06-01T04:46:23.352Z,1005.23
2018-06-01T04:47:29.895Z,1005.28
2018-06-01T04:48:34.391Z,1005.30
2018-06-01T04:49:39.909Z,1005.34
2018-06-01T04:50:45.429Z,1005.41
2018-06-01T04:51:50.943Z,1005.44
2018-06-01T04:52:56.456Z,1005.46
2018-06-01T04:54:02.995Z,1005.51
2018-06-01T04:55:07.499Z,1005.49
2018-06-01T04:56:13.072Z,1005.51
2018-06-01T04:57:18.533Z,1005.51
2018-06-01T04:58:24.067Z,1005.51
2018-06-01T04:59:29.577Z,1005.50
2018-06-01T05:00:36.093Z,1005.50
2018-06-01T05:01:40.610Z,1005.52
2018-06-01T05:02:46.118Z,1005.50
2018-06-01T05:03:51.635Z,1005.49
2018-06-01T05:04:57.171Z,1005.47
2018-06-01T05:06:02.677Z,1005.43
2018-06-01T05:07:09.210Z,1005.44
2018-06-01T05:08:13.711Z,1005.43
2018-06-01T05:09:19.226Z,1005.38
2018-06-01T05:10:24.750Z,1005.40
2018-06-01T05:11:30.352Z,1005.41
2018-06-01T05:12:35.792Z,1005.39
2018-06-01T05:13:42.314Z,1005.37
2018-06-01T05:14:46.814Z,1005.40
2018-06-01T05:15:52.350Z,1005.39
2018-06-01T05:16:57.857Z,1005.37
2018-06-01T05:18:03.378Z,1005.38
2018-06-01T05:19:08.912Z,1005.34
2018-06-01T05:20:15.423Z,1005.31
2018-06-01T05:21:19.931Z,1005.24
2018-06-01T05:22:25.444Z,1005.22
2018-06-01T05:23:30.966Z,1005.23
2018-06-01T05:24:36.483Z,1005.15
2018-06-01T05:25:42.002Z,1005.18
2018-06-01T05:26:48.533Z,1005.15
2018-06-01T05:27:53.040Z,1005.14
2018-06-01T05:28:58.571Z,1005.13
2018-06-01T05:30:04.081Z,1005.16
2018-06-01T05:31:09.590Z,1005.13
2018-06-01T05:32:15.121Z,1005.12
2018-06-01T05:33:21.643Z,1005.14
2018-06-01T05:34:26.163Z,1005.10
2018-06-01T05:35:31.684Z,1005.13
2018-06-01T05:36:37.195Z,1005.13
2018-06-01T05:37:42.716Z,1005.14
2018-06-01T05:38:48.231Z,1005.13
2018-06-01T05:39:54.745Z,1005.09
2018-06-01T05:40:59.263Z,1005.13
2018-06-01T05:42:04.787Z,1005.11
2018-06-01T05:43:10.301Z,1005.09
2018-06-01T05:44:15.837Z,1005.10
2018-06-01T05:45:21.338Z,1005.14
2018-06-01T05:46:27.931Z,1005.11
2018-06-01T05:47:32.394Z,1005.09
2018-06-01T05:48:37.890Z,1005.08
2018-06-01T05:49:43.428Z,1005.10
2018-06-01T05:50:48.928Z,1005.12
2018-06-01T05:51:54.459Z,1005.14
2018-06-01T05:53:00.977Z,1005.11
2018-06-01T05:54:05.498Z,1005.15
2018-06-01T05:55:11.004Z,1005.16
2018-06-01T05:56:16.525Z,1005.18
2018-06-01T05:57:22.057Z,1005.22
2018-06-01T05:58:27.560Z,1005.21
2018-06-01T05:59:34.108Z,1005.16
2018-06-01T06:00:38.597Z,1005.17
2018-06-01T06:01:44.120Z,1005.15
2018-06-01T06:02:49.640Z,1005.18
2018-06-01T06:03:55.165Z,1005.21
2018-06-01T06:05:00.709Z,1005.23
2018-06-01T06:06:07.216Z,1005.21
2018-06-01T06:07:11.727Z,1005.23
2018-06-01T06:08:17.237Z,1005.25
2018-06-01T06:09:22.762Z,1005.25
2018-06-01T06:10:28.277Z,1005.24
2018-06-01T06:11:33.797Z,1005.27
2018-06-01T06:12:40.325Z,1005.22
2018-06-01T06:13:44.835Z,1005.23
2018-06-01T06:14:50.346Z,1005.21
2018-06-01T06:15:55.867Z,1005.18
2018-06-01T06:17:01.389Z,1005.17
2018-06-01T06:18:06.914Z,1005.21
2018-06-01T06:19:13.440Z,1005.16
2018-06-01T06:20:17.949Z,1005.19
2018-06-01T06:21:23.462Z,1005.18
2018-06-01T06:22:28.980Z,1005.18
2018-06-01T06:23:34.499Z,1005.20
2018-06-01T06:24:40.014Z,1005.17
2018-06-01T06:25:46.607Z,1005.16
2018-06-01T06:26:51.065Z,1005.09
2018-06-01T06:27:56.579Z,1005.06
2018-06-01T06:29:02.106Z,1005.04
2018-06-01T06:30:07.697Z,1005.01
2018-06-01T06:31:13.124Z,1005.06
2018-06-01T06:32:19.671Z,1005.05
2018-06-01T06:33:24.171Z,1005.02
2018-06-01T06:34:29.688Z,1005.04
2018-06-01T06:35:35.221Z,1004.99
2018-06-01T06:36:40.723Z,1004.99
2018-06-01T06:37:46.363Z,1004.98
2018-06-01T06:38:52.775Z,1004.99
2018-06-01T06:39:57.322Z,1005.00
2018-06-01T06:41:02.809Z,1005.01
2018-06-01T06:42:08.317Z,1004.97
2018-06-01T06:43:13.850Z,1004.94
2018-06-01T06:44:19.359Z,1004.95
2018-06-01T06:45:25.890Z,1004.90
2018-06-01T06:46:30.399Z,1004.85
2018-06-01T06:47:35.915Z,1004.83
2018-06-01T06:48:41.475Z,1004.81
2018-06-01T06:49:46.961Z,1004.81
2018-06-01T06:50:52.483Z,1004.88
2018-06-01T06:51:59.016Z,1004.87
2018-06-01T06:53:03.503Z,1004.93
2018-06-01T06:54:09.025Z,1004.96
2018-06-01T06:55:14.565Z,1004.96
2018-06-01T06:56:20.069Z,1004.94
2018-06-01T06:57:25.582Z,1005.00
2018-06-01T06:58:32.124Z,1005.00
2018-06-01T06:59:36.623Z,1005.01
2018-06-01T07:00:42.145Z,1005.00
2018-06-01T07:01:47.666Z,1005.01
2018-06-01T07:02:53.183Z,1005.01
2018-06-01T07:03:58.728Z,1004.96
2018-06-01T07:05:05.218Z,1004.97
2018-06-01T07:06:09.747Z,1005.00
2018-06-01T07:07:15.253Z,1004.96
2018-06-01T07:08:20.778Z,1004.97
2018-06-01T07:09:26.301Z,1005.00
2018-06-01T07:10:31.813Z,1005.01
2018-06-01T07:11:38.348Z,1004.99
2018-06-01T07:12:42.845Z,1004.98
2018-06-01T07:13:48.369Z,1004.96
2018-06-01T07:14:53.884Z,1004.95
2018-06-01T07:15:59.403Z,1004.96
2018-06-01T07:17:04.917Z,1005.00
2018-06-01T07:18:11.466Z,1005.03
2018-06-01T07:19:15.956Z,1005.00
2018-06-01T07:20:21.502Z,1005.00
2018-06-01T07:21:27.011Z,1004.98
2018-06-01T07:22:32.592Z,1004.97
2018-06-01T07:23:38.037Z,1004.95
2018-06-01T07:24:44.579Z,1004.96
2018-06-01T07:25:49.072Z,1004.98
2018-06-01T07:26:54.593Z,1005.02
2018-06-01T07:28:00.191Z,1005.05
2018-06-01T07:29:05.645Z,1005.06
2018-06-01T07:30:11.146Z,1005.07
2018-06-01T07:31:17.703Z,1005.12
2018-06-01T07:32:22.189Z,1005.11
2018-06-01T07:33:27.704Z,1005.12
2018-06-01T07:34:33.227Z,1005.11
2018-06-01T07:35:38.897Z,1005.15
2018-06-01T07:36:44.255Z,1005.18
2018-06-01T07:37:50.788Z,1005.18
2018-06-01T07:38:55.303Z,1005.20
2018-06-01T07:40:00.817Z,1005.23
2018-06-01T07:41:06.369Z,1005.23
2018-06-01T07:42:11.851Z,1005.28
2018-06-01T07:43:17.381Z,1005.28
2018-06-01T07:44:23.921Z,1005.28
2018-06-01T07:45:28.425Z,1005.27
2018-06-01T07:46:33.921Z,1005.29
2018-06-01T07:47:39.446Z,1005.28
2018-06-01T07:48:44.966Z,1005.33
2018-06-01T07:49:50.489Z,1005.33
2018-06-01T07:50:57.012Z,1005.39
2018-06-01T07:52:01.524Z,1005.43
2018-06-01T07:53:07.050Z,1005.45
2018-06-01T07:54:12.577Z,1005.52
2018-06-01T07:55:18.082Z,1005.59
2018-06-01T07:56:23.617Z,1005.64
2018-06-01T07:57:30.123Z,1005.68
2018-06-01T07:58:34.636Z,1005.74
2018-06-01T07:59:40.162Z,1005.74
2018-06-01T08:00:45.663Z,1005.74
2018-06-01T08:01:51.197Z,1005.73
2018-06-01T08:02:56.724Z,1005.72
2018-06-01T08:04:03.246Z,1005.71
2018-06-01T08:05:07.763Z,1005.69
2018-06-01T08:06:13.285Z,1005.60
2018-06-01T08:07:18.783Z,1005.52
2018-06-01T08:08:24.302Z,1005.45
2018-06-01T08:09:29.821Z,1005.29
2018-06-01T08:10:36.366Z,1005.22
2018-06-01T08:11:40.867Z,1005.14
2018-06-01T08:12:46.384Z,1005.13
2018-06-01T08:13:51.902Z,1005.14
2018-06-01T08:14:57.411Z,1005.14
2018-06-01T08:16:02.996Z,1005.15
2018-06-01T08:17:09.470Z,1005.15
2018-06-01T08:18:13.992Z,1005.12
2018-06-01T08:19:19.486Z,1005.13
2018-06-01T08:20:25.077Z,1005.11
2018-06-01T08:21:30.534Z,1005.11
2018-06-01T08:22:36.051Z,1005.10
2018-06-01T08:23:42.586Z,1005.11
2018-06-01T08:24:47.080Z,1005.14
2018-06-01T08:25:52.629Z,1005.10
2018-06-01T08:26:58.170Z,1005.13
2018-06-01T08:28:03.660Z,1005.13
2018-06-01T08:29:09.165Z,1005.12
2018-06-01T08:30:15.692Z,1005.16
2018-06-01T08:31:20.742Z,1005.20
2018-06-01T08:32:25.850Z,1005.25
2018-06-01T08:33:31.241Z,1005.30
2018-06-01T08:34:36.771Z,1005.31
2018-06-01T08:35:42.276Z,1005.34
2018-06-01T08:36:48.802Z,1005.34
2018-06-01T08:37:53.329Z,1005.40
2018-06-01T08:38:58.841Z,1005.40
2018-06-01T08:40:04.361Z,1005.46
2018-06-01T08:41:09.881Z,1005.45
2018-06-01T08:42:15.388Z,1005.48
2018-06-01T08:43:21.915Z,1005.49
2018-06-01T08:44:26.421Z,1005.50
2018-06-01T08:45:31.949Z,1005.47
2018-06-01T08:46:37.493Z,1005.50
2018-06-01T08:47:42.998Z,1005.52
2018-06-01T08:48:48.512Z,1005.52
2018-06-01T08:49:55.038Z,1005.50
2018-06-01T08:50:59.613Z,1005.49
2018-06-01T08:52:05.061Z,1005.48
2018-06-01T08:53:10.583Z,1005.46
2018-06-01T08:54:16.091Z,1005.49
2018-06-01T08:55:21.625Z,1005.49
2018-06-01T08:56:28.149Z,1005.49
2018-06-01T08:57:32.645Z,1005.43
2018-06-01T08:58:38.184Z,1005.42
2018-06-01T08:59:43.710Z,1005.40
2018-06-01T09:00:49.212Z,1005.35
2018-06-01T09:01:54.742Z,1005.36
2018-06-01T09:03:01.257Z,1005.32
2018-06-01T09:04:05.774Z,1005.35
2018-06-01T09:05:11.282Z,1005.36
2018-06-01T09:06:16.804Z,1005.36
2018-06-01T09:07:22.322Z,1005.38
2018-06-01T09:08:27.848Z,1005.37
2018-06-01T09:09:34.372Z,1005.41
2018-06-01T09:10:38.878Z,1005.46
2018-06-01T09:11:44.397Z,1005.47
2018-06-01T09:12:50.039Z,1005.46
2018-06-01T09:13:55.437Z,1005.46
2018-06-01T09:15:00.953Z,1005.46
2018-06-01T09:16:07.477Z,1005.45
2018-06-01T09:17:11.986Z,1005.49
2018-06-01T09:18:17.512Z,1005.50
2018-06-01T09:19:23.024Z,1005.53
2018-06-01T09:20:28.595Z,1005.50
2018-06-01T09:21:34.078Z,1005.54
2018-06-01T09:22:40.588Z,1005.53
2018-06-01T09:23:45.100Z,1005.50
2018-06-01T09:24:50.620Z,1005.50
2018-06-01T09:25:56.146Z,1005.50
2018-06-01T09:27:01.650Z,1005.53
2018-06-01T09:28:07.189Z,1005.55
2018-06-01T09:29:13.711Z,1005.57
2018-06-01T09:30:18.215Z,1005.59
2018-06-01T09:31:23.746Z,1005.58
2018-06-01T09:32:29.260Z,1005.57
2018-06-01T09:33:34.781Z,1005.59
2018-06-01T09:34:40.294Z,1005.60
2018-06-01T09:35:46.822Z,1005.61
2018-06-01T09:36:51.330Z,1005.60
2018-06-01T09:37:56.846Z,1005.61
2018-06-01T09:39:02.371Z,1005.66
2018-06-01T09:40:07.894Z,1005.65
2018-06-01T09:41:13.402Z,1005.71
2018-06-01T09:42:20.063Z,1005.70
2018-06-01T09:43:24.520Z,1005.69
2018-06-01T09:44:29.962Z,1005.71
2018-06-01T09:45:35.474Z,1005.72
2018-06-01T09:46:41.054Z,1005.72
2018-06-01T09:47:46.526Z,1005.71
2018-06-01T09:48:53.050Z,1005.75
2018-06-01T09:49:57.581Z,1005.76
2018-06-01T09:51:03.169Z,1005.75
2018-06-01T09:52:08.599Z,1005.77
2018-06-01T09:53:14.110Z,1005.80
2018-06-01T09:54:19.633Z,1005.78
2018-06-01T09:55:26.209Z,1005.82
2018-06-01T09:56:30.676Z,1005.80
2018-06-01T09:57:36.343Z,1005.81
2018-06-01T09:58:41.694Z,1005.86
2018-06-01T09:59:47.222Z,1005.85
2018-06-01T10:00:52.762Z,1005.86
2018-06-01T10:01:59.269Z,1005.88
2018-06-01T10:03:03.795Z,1005.88
2018-06-01T10:04:09.300Z,1005.89
2018-06-01T10:05:14.943Z,1005.90
2018-06-01T10:06:20.398Z,1005.91
2018-06-01T10:07:25.853Z,1005.89
2018-06-01T10:08:32.384Z,1005.90
2018-06-01T10:09:36.906Z,1005.88
2018-06-01T10:10:42.409Z,1005.90
2018-06-01T10:11:47.916Z,1005.86
2018-06-01T10:12:53.541Z,1005.87
2018-06-01T10:13:58.989Z,1005.91
2018-06-01T10:15:05.527Z,1005.89
2018-06-01T10:16:10.009Z,1005.90
2018-06-01T10:17:15.521Z,1005.90
2018-06-01T10:18:21.043Z,1005.85
2018-06-01T10:19:26.567Z,1005.89
2018-06-01T10:20:32.111Z,1005.90
2018-06-01T10:21:38.616Z,1005.87
2018-06-01T10:22:43.122Z,1005.88
2018-06-01T10:23:48.639Z,1005.92
2018-06-01T10:24:54.156Z,1005.85
2018-06-01T10:25:59.670Z,1005.88
2018-06-01T10:27:05.196Z,1005.84
2018-06-01T10:28:11.720Z,1005.82
2018-06-01T10:29:16.239Z,1005.77
2018-06-01T10:30:21.747Z,1005.79
2018-06-01T10:31:27.295Z,1005.78
2018-06-01T10:32:32.779Z,1005.72
2018-06-01T10:33:38.325Z,1005.71
2018-06-01T10:34:44.840Z,1005.67
2018-06-01T10:35:49.352Z,1005.63
2018-06-01T10:36:54.865Z,1005.63
2018-06-01T10:38:00.399Z,1005.60
2018-06-01T10:39:05.899Z,1005.54
2018-06-01T10:40:11.428Z,1005.51
2018-06-01T10:41:17.953Z,1005.53
2018-06-01T10:42:22.542Z,1005.54
2018-06-01T10:43:28.006Z,1005.54
2018-06-01T10:44:33.504Z,1005.56
2018-06-01T10:45:39.021Z,1005.58
2018-06-01T10:46:44.525Z,1005.64
2018-06-01T10:47:51.156Z,1005.63
2018-06-01T10:48:55.573Z,1005.62
2018-06-01T10:50:01.089Z,1005.59
2018-06-01T10:51:06.608Z,1005.63
2018-06-01T10:52:12.125Z,1005.61
2018-06-01T10:53:17.657Z,1005.65
2018-06-01T10:54:24.186Z,1005.62
2018-06-01T10:55:28.707Z,1005.61
2018-06-01T10:56:34.198Z,1005.64
2018-06-01T10:57:39.738Z,1005.65
2018-06-01T10:58:45.290Z,1005.64
2018-06-01T10:59:50.763Z,1005.66
2018-06-01T11:00:57.304Z,1005.68
2018-06-01T11:02:01.806Z,1005.64
2018-06-01T11:03:07.327Z,1005.66
2018-06-01T11:04:12.865Z,1005.72
2018-06-01T11:05:18.408Z,1005.74
2018-06-01T11:06:23.893Z,1005.75
2018-06-01T11:07:30.438Z,1005.78
2018-06-01T11:08:34.920Z,1005.79
2018-06-01T11:09:40.461Z,1005.72
2018-06-01T11:10:45.968Z,1005.75
2018-06-01T11:11:51.494Z,1005.70
2018-06-01T11:12:57.050Z,1005.72
2018-06-01T11:14:03.529Z,1005.70
2018-06-01T11:15:08.047Z,1005.71
2018-06-01T11:16:13.560Z,1005.69
2018-06-01T11:17:19.079Z,1005.75
2018-06-01T11:18:24.599Z,1005.77
2018-06-01T11:19:30.118Z,1005.76
2018-06-01T11:20:36.672Z,1005.76
2018-06-01T11:21:41.180Z,1005.79
2018-06-01T11:22:46.683Z,1005.77
2018-06-01T11:23:52.194Z,1005.76
2018-06-01T11:24:57.879Z,1005.77
2018-06-01T11:26:03.245Z,1005.76
2018-06-01T11:27:09.915Z,1005.76
2018-06-01T11:28:14.278Z,1005.75
2018-06-01T11:29:19.817Z,1005.71
2018-06-01T11:30:25.321Z,1005.73
2018-06-01T11:31:30.845Z,1005.72
2018-06-01T11:32:36.357Z,1005.72
2018-06-01T11:33:42.907Z,1005.75
2018-06-01T11:34:47.396Z,1005.73
2018-06-01T11:35:52.916Z,1005.73
2018-06-01T11:36:58.453Z,1005.70
2018-06-01T11:38:03.959Z,1005.68
2018-06-01T11:39:09.484Z,1005.68
2018-06-01T11:40:16.018Z,1005.67
2018-06-01T11:41:20.537Z,1005.66
2018-06-01T11:42:26.041Z,1005.61
2018-06-01T11:43:31.562Z,1005.65
2018-06-01T11:44:37.075Z,1005.62
2018-06-01T11:45:42.610Z,1005.63
2018-06-01T11:46:49.129Z,1005.68
2018-06-01T11:47:53.666Z,1005.67
2018-06-01T11:48:59.163Z,1005.68
2018-06-01T11:50:04.691Z,1005.69
2018-06-01T11:51:10.213Z,1005.72
2018-06-01T11:52:15.721Z,1005.72
2018-06-01T11:53:22.259Z,1005.73
2018-06-01T11:54:26.770Z,1005.73
2018-06-01T11:55:32.280Z,1005.74
2018-06-01T11:56:37.811Z,1005.76
2018-06-01T11:57:43.340Z,1005.74
2018-06-01T11:58:48.849Z,1005.75
2018-06-01T11:59:55.373Z,1005.71
2018-06-01T12:00:59.887Z,1005.77
2018-06-01T12:02:05.426Z,1005.74
2018-06-01T12:03:10.959Z,1005.74
2018-06-01T12:04:16.467Z,1005.76
2018-06-01T12:05:21.971Z,1005.74
2018-06-01T12:06:28.495Z,1005.73
2018-06-01T12:07:33.016Z,1005.69
2018-06-01T12:08:38.528Z,1005.76
2018-06-01T12:09:44.068Z,1005.73
2018-06-01T12:10:49.611Z,1005.74
2018-06-01T12:11:55.093Z,1005.73
2018-06-01T12:13:01.635Z,1005.72
2018-06-01T12:14:06.144Z,1005.74
2018-06-01T12:15:11.659Z,1005.71
2018-06-01T12:16:17.176Z,1005.73
2018-06-01T12:17:22.703Z,1005.70
2018-06-01T12:18:28.217Z,1005.71
2018-06-01T12:19:34.772Z,1005.69
2018-06-01T12:20:39.261Z,1005.70
2018-06-01T12:21:44.763Z,1005.72
2018-06-01T12:22:50.307Z,1005.69
2018-06-01T12:23:55.826Z,1005.72
2018-06-01T12:25:01.332Z,1005.71
2018-06-01T12:26:07.858Z,1005.69
2018-06-01T12:27:12.364Z,1005.67
2018-06-01T12:28:17.933Z,1005.65
2018-06-01T12:29:23.453Z,1005.63
2018-06-01T12:30:28.945Z,1005.67
2018-06-01T12:31:34.458Z,1005.63
2018-06-01T12:32:40.992Z,1005.64
2018-06-01T12:33:45.494Z,1005.66
2018-06-01T12:34:51.013Z,1005.66
2018-06-01T12:35:56.537Z,1005.68
2018-06-01T12:37:02.075Z,1005.64
2018-06-01T12:38:07.608Z,1005.65
2018-06-01T12:39:14.111Z,1005.60
2018-06-01T12:40:18.607Z,1005.56
2018-06-01T12:41:24.137Z,1005.55
2018-06-01T12:42:29.664Z,1005.53
2018-06-01T12:43:35.176Z,1005.54
2018-06-01T12:44:40.692Z,1005.56
2018-06-01T12:45:47.224Z,1005.57
2018-06-01T12:46:51.738Z,1005.56
2018-06-01T12:47:57.269Z,1005.61
2018-06-01T12:49:02.780Z,1005.64
2018-06-01T12:50:08.306Z,1005.62
2018-06-01T12:51:13.821Z,1005.61
2018-06-01T12:52:20.351Z,1005.67
2018-06-01T12:53:24.864Z,1005.61
2018-06-01T12:54:30.373Z,1005.63
2018-06-01T12:55:35.917Z,1005.56
2018-06-01T12:56:41.464Z,1005.56
2018-06-01T12:57:46.941Z,1005.56
2018-06-01T12:58:53.497Z,1005.51
2018-06-01T12:59:57.992Z,1005.50
2018-06-01T13:01:03.503Z,1005.43
2018-06-01T13:02:09.025Z,1005.43
2018-06-01T13:03:14.549Z,1005.48
2018-06-01T13:04:20.085Z,1005.43
2018-06-01T13:05:26.603Z,1005.49
2018-06-01T13:06:31.109Z,1005.46
2018-06-01T13:07:36.623Z,1005.47
2018-06-01T13:08:42.157Z,1005.50
2018-06-01T13:09:47.662Z,1005.49
2018-06-01T13:10:53.199Z,1005.50
2018-06-01T13:11:59.751Z,1005.46